KAFF/AFF METAR and TAF weather

Enter ICAO airport designator
Station Type Date Time Source
KAFF METAR 2022/05/23 15:28 UTC NOAA

KAFF 231528Z 21005KT 10SM SCT006 BKN009 OVC014 05/04 A3004 RMK AO2A SLP168


Station Type Date Time Source
KAFF Decoded METAR 2022/05/23 15:28 UTC NOAA

Air Force Academy, CO, United States (KAFF) 38-58N 104-49W 1999M
May 23, 2022 - 11:28 AM EDT / 2022.05.23 1528 UTC
Wind: from the SSW (210 degrees) at 6 MPH (5 KT):0
Visibility: 10 mile(s):0
Sky conditions: overcast
Temperature: 41 F (5 C)
Dew Point: 39 F (4 C)
Relative Humidity: 93%
Pressure (altimeter): 30.04 in. Hg (1017 hPa)
ob: KAFF 231528Z 21005KT 10SM SCT006 BKN009 OVC014 05/04 A3004 RMK AO2A SLP168
cycle: 15

Station Type Date Time Source
KAFF TAF 2022/05/23 13:33 UTC NOAA

TAF TAF
AMD KAFF 231320Z 2313/2417 15009KT 9999 OVC005 620103 QNH3002INS
BECMG 2317/2318 36012G20KT 9999 SCT007 SCT250 QNH3001INS
BECMG 2318/2319 01014KT 9999 VCSH BKN040 BKN150 610409 QNH3001INS WND 340V100
BECMG 2323/2324 35012KT 8000 -SHRA SCT008 BKN015 OVC080 610309 QNH3002INS
BECMG 2415/2416 16009KT 9999 NSW SCT010 SCT040 QNH3002INS TX12/2320Z TN03/2313Z

Example: see airport list